createdAt,value
2022-11-15T00:01:19.002Z,99779.44
2022-11-15T00:03:56.081Z,99774.06
2022-11-15T00:06:24.020Z,99765.03
2022-11-15T00:08:51.613Z,99774.66
2022-11-15T00:11:19.268Z,99786.16
2022-11-15T00:13:46.935Z,99769.41
2022-11-15T00:16:14.509Z,99777.66
2022-11-15T00:18:46.350Z,99768.16
2022-11-15T00:21:19.639Z,99772.63
2022-11-15T00:23:47.345Z,99772.00
2022-11-15T00:26:17.360Z,99765.63
2022-11-15T00:28:44.940Z,99766.44
2022-11-15T00:31:14.961Z,99763.97
2022-11-15T00:33:45.184Z,99765.22
2022-11-15T00:36:13.087Z,99767.28
2022-11-15T00:38:43.085Z,99772.22
2022-11-15T00:41:10.923Z,99769.56
2022-11-15T00:43:38.594Z,99761.72
2022-11-15T00:46:06.436Z,99760.91
2022-11-15T00:48:34.123Z,99758.00
2022-11-15T00:51:01.806Z,99758.31
2022-11-15T00:53:30.306Z,99763.91
2022-11-15T00:56:00.387Z,99759.88
2022-11-15T00:58:28.023Z,99763.78
2022-11-15T01:00:55.799Z,99753.09
2022-11-15T01:03:23.639Z,99749.16
2022-11-15T01:05:51.357Z,99744.00
2022-11-15T01:08:19.201Z,99748.34
2022-11-15T01:10:46.828Z,99742.66
2022-11-15T01:13:15.729Z,99743.13
2022-11-15T01:15:44.474Z,99737.53
2022-11-15T01:18:12.135Z,99743.88
2022-11-15T01:20:41.893Z,99729.06
2022-11-15T01:23:09.829Z,99734.28
2022-11-15T01:25:37.417Z,99735.84
2022-11-15T01:28:05.125Z,99737.69
2022-11-15T01:30:34.046Z,99742.56
2022-11-15T01:33:01.709Z,99732.28
2022-11-15T01:35:29.240Z,99731.66
2022-11-15T01:37:58.930Z,99727.81
2022-11-15T01:40:27.566Z,99726.94
2022-11-15T01:42:55.194Z,99739.25
2022-11-15T01:45:23.273Z,99730.25
2022-11-15T01:47:55.193Z,99733.16
2022-11-15T01:50:30.342Z,99724.19
2022-11-15T01:52:58.183Z,99720.63
2022-11-15T01:55:29.748Z,99707.25
2022-11-15T01:58:01.286Z,99716.34
2022-11-15T02:00:29.269Z,99712.66
2022-11-15T02:02:58.367Z,99703.25
2022-11-15T02:05:25.993Z,99717.25
2022-11-15T02:07:53.875Z,99711.53
2022-11-15T02:10:23.671Z,99707.50
2022-11-15T02:12:52.368Z,99706.69
2022-11-15T02:15:20.241Z,99689.00
2022-11-15T02:18:10.882Z,99692.25
2022-11-15T02:20:46.216Z,99684.06
2022-11-15T02:23:52.905Z,99673.34
2022-11-15T02:26:46.384Z,99666.13
2022-11-15T02:29:22.467Z,99666.56
2022-11-15T02:31:57.325Z,99664.50
2022-11-15T02:34:38.404Z,99656.88
2022-11-15T02:37:13.892Z,99654.47
2022-11-15T02:39:49.750Z,99650.75
2022-11-15T02:42:38.988Z,99646.56
2022-11-15T02:45:13.480Z,99657.28
2022-11-15T02:47:47.816Z,99650.50
2022-11-15T02:50:20.601Z,99643.28
2022-11-15T02:52:49.954Z,99655.00
2022-11-15T02:55:31.614Z,99654.75
2022-11-15T02:58:25.516Z,99660.13
2022-11-15T03:01:01.333Z,99654.97
2022-11-15T03:03:48.209Z,99648.13
2022-11-15T03:06:29.924Z,99654.28
2022-11-15T03:09:06.699Z,99640.63
2022-11-15T03:11:40.353Z,99645.38
2022-11-15T03:14:19.154Z,99643.47
2022-11-15T03:16:53.853Z,99636.69
2022-11-15T03:19:31.671Z,99646.72
2022-11-15T03:22:03.069Z,99648.72
2022-11-15T03:24:35.362Z,99638.44
2022-11-15T03:27:05.906Z,99635.97
2022-11-15T03:29:36.309Z,99646.03
2022-11-15T03:32:09.882Z,99649.53
2022-11-15T03:34:43.415Z,99654.28
2022-11-15T03:37:14.658Z,99655.47
2022-11-15T03:39:44.883Z,99646.00
2022-11-15T03:42:24.423Z,99651.13
2022-11-15T03:44:58.496Z,99649.91
2022-11-15T03:47:31.495Z,99644.94
2022-11-15T03:50:04.785Z,99648.19
2022-11-15T03:52:35.428Z,99648.00
2022-11-15T03:55:06.062Z,99641.81
2022-11-15T03:57:33.748Z,99638.72
2022-11-15T04:00:01.519Z,99648.59
2022-11-15T04:02:29.292Z,99650.66
2022-11-15T04:04:59.552Z,99650.50
2022-11-15T04:07:28.717Z,99657.31
2022-11-15T04:10:06.369Z,99652.22
2022-11-15T04:12:35.824Z,99660.75
2022-11-15T04:15:09.399Z,99647.19
2022-11-15T04:17:40.188Z,99652.59
2022-11-15T04:20:37.036Z,99647.69
2022-11-15T04:23:25.760Z,99647.97
2022-11-15T04:25:55.361Z,99636.00
2022-11-15T04:28:23.448Z,99638.69
2022-11-15T04:30:51.305Z,99637.06
2022-11-15T04:33:18.967Z,99633.97
2022-11-15T04:36:06.842Z,99626.34
2022-11-15T04:38:35.250Z,99632.19
2022-11-15T04:41:03.238Z,99629.69
2022-11-15T04:43:31.499Z,99634.16
2022-11-15T04:45:59.523Z,99623.72
2022-11-15T04:48:29.142Z,99620.50
2022-11-15T04:50:56.809Z,99619.84
2022-11-15T04:53:24.447Z,99618.56
2022-11-15T04:55:53.468Z,99622.31
2022-11-15T04:58:21.203Z,99605.25
2022-11-15T05:00:49.202Z,99613.72
2022-11-15T05:03:35.110Z,99610.41
2022-11-15T05:06:03.261Z,99605.50
2022-11-15T05:08:30.999Z,99614.16
2022-11-15T05:11:00.118Z,99612.50
2022-11-15T05:13:27.807Z,99610.66
2022-11-15T05:15:55.457Z,99600.34
2022-11-15T05:18:23.969Z,99605.88
2022-11-15T05:20:51.674Z,99599.94
2022-11-15T05:23:19.329Z,99604.44
2022-11-15T05:25:46.985Z,99616.34
2022-11-15T05:28:15.929Z,99616.66
2022-11-15T05:30:43.515Z,99611.47
2022-11-15T05:33:11.287Z,99605.13
2022-11-15T05:35:43.696Z,99602.03
2022-11-15T05:38:11.278Z,99592.00
2022-11-15T05:40:39.097Z,99601.03
2022-11-15T05:43:07.436Z,99594.69
2022-11-15T05:45:37.801Z,99591.34
2022-11-15T05:48:09.755Z,99596.69
2022-11-15T05:50:40.749Z,99594.19
2022-11-15T05:53:11.572Z,99602.56
2022-11-15T05:55:40.828Z,99585.28
2022-11-15T05:58:08.870Z,99583.69
2022-11-15T06:00:38.120Z,99578.16
2022-11-15T06:03:08.111Z,99576.53
2022-11-15T06:05:36.677Z,99579.66
2022-11-15T06:08:04.430Z,99583.72
2022-11-15T06:10:32.063Z,99583.16
2022-11-15T06:13:00.418Z,99581.47
2022-11-15T06:15:28.417Z,99590.16
2022-11-15T06:18:00.176Z,99595.72
2022-11-15T06:20:30.347Z,99589.94
2022-11-15T06:23:00.437Z,99581.28
2022-11-15T06:25:32.710Z,99586.06
2022-11-15T06:28:00.809Z,99585.44
2022-11-15T06:30:28.925Z,99583.84
2022-11-15T06:33:03.463Z,99586.31
2022-11-15T06:35:32.365Z,99585.09
2022-11-15T06:38:05.382Z,99589.63
2022-11-15T06:40:49.156Z,99602.88
2022-11-15T06:43:17.855Z,99591.31
2022-11-15T06:45:45.787Z,99595.88
2022-11-15T06:48:15.926Z,99595.50
2022-11-15T06:50:43.634Z,99599.41
2022-11-15T06:53:11.403Z,99586.84
2022-11-15T06:55:39.077Z,99594.50
2022-11-15T06:58:06.880Z,99594.06
2022-11-15T07:00:36.112Z,99577.13
2022-11-15T07:03:04.667Z,99592.41
2022-11-15T07:05:34.387Z,99595.28
2022-11-15T07:08:02.597Z,99596.13
2022-11-15T07:10:30.510Z,99590.13
2022-11-15T07:12:58.761Z,99591.38
2022-11-15T07:15:28.252Z,99601.91
2022-11-15T07:17:55.878Z,99604.56
2022-11-15T07:20:23.492Z,99604.38
2022-11-15T07:22:52.450Z,99603.56
2022-11-15T07:25:20.050Z,99605.19
2022-11-15T07:27:56.464Z,99604.19
2022-11-15T07:30:24.803Z,99607.22
2022-11-15T07:32:54.718Z,99608.16
2022-11-15T07:35:22.303Z,99600.84
2022-11-15T07:38:00.732Z,99599.38
2022-11-15T07:40:29.796Z,99592.25
2022-11-15T07:43:01.729Z,99599.66
2022-11-15T07:45:29.368Z,99588.72
2022-11-15T07:47:57.782Z,99596.78
2022-11-15T07:50:26.227Z,99588.25
2022-11-15T07:52:57.498Z,99592.81
2022-11-15T07:55:29.271Z,99593.47
2022-11-15T07:58:02.684Z,99581.56
2022-11-15T08:00:33.058Z,99589.59
2022-11-15T08:03:05.448Z,99592.50
2022-11-15T08:05:35.971Z,99584.53
2022-11-15T08:08:03.954Z,99585.28
2022-11-15T08:10:37.830Z,99579.50
2022-11-15T08:13:10.780Z,99594.09
2022-11-15T08:15:39.078Z,99586.69
2022-11-15T08:18:09.007Z,99586.38
2022-11-15T08:20:37.196Z,99582.25
2022-11-15T08:23:06.615Z,99593.84
2022-11-15T08:25:36.715Z,99595.81
2022-11-15T08:28:06.877Z,99589.53
2022-11-15T08:30:39.999Z,99584.97
2022-11-15T08:33:07.617Z,99594.19
2022-11-15T08:35:35.173Z,99600.63
2022-11-15T08:38:02.833Z,99591.88
2022-11-15T08:40:30.402Z,99591.63
2022-11-15T08:42:59.713Z,99593.81
2022-11-15T08:45:27.401Z,99591.56
2022-11-15T08:47:55.255Z,99577.66
2022-11-15T08:50:23.107Z,99583.50
2022-11-15T08:52:50.908Z,99577.47
2022-11-15T08:55:18.608Z,99574.38
2022-11-15T08:57:46.536Z,99578.63
2022-11-15T09:00:16.706Z,99578.38
2022-11-15T09:02:44.486Z,99569.28
2022-11-15T09:05:12.086Z,99569.50
2022-11-15T09:07:40.150Z,99574.44
2022-11-15T09:10:08.747Z,99570.56
2022-11-15T09:12:36.324Z,99578.84
2022-11-15T09:15:04.425Z,99577.22
2022-11-15T09:17:33.340Z,99572.56
2022-11-15T09:20:00.994Z,99562.81
2022-11-15T09:22:29.553Z,99560.75
2022-11-15T09:24:57.185Z,99558.41
2022-11-15T09:27:24.809Z,99562.84
2022-11-15T09:29:52.401Z,99567.75
2022-11-15T09:32:19.972Z,99552.81
2022-11-15T09:34:49.912Z,99552.13
2022-11-15T09:37:17.708Z,99555.81
2022-11-15T09:39:45.282Z,99558.88
2022-11-15T09:42:33.571Z,99555.06
2022-11-15T09:45:13.183Z,99555.28
2022-11-15T09:47:59.097Z,99544.81
2022-11-15T09:50:36.848Z,99544.44
2022-11-15T09:53:14.367Z,99540.91
2022-11-15T09:55:49.588Z,99537.94
2022-11-15T09:58:25.317Z,99539.03
2022-11-15T10:00:54.537Z,99532.47
2022-11-15T10:03:28.215Z,99528.16
2022-11-15T10:05:59.660Z,99516.88
2022-11-15T10:08:37.723Z,99524.47
2022-11-15T10:13:59.655Z,99517.63
2022-11-15T10:16:57.046Z,99511.91
2022-11-15T10:19:36.219Z,99510.97
2022-11-15T10:22:19.506Z,99503.47
2022-11-15T10:24:48.926Z,99485.09
2022-11-15T10:27:19.928Z,99495.56
2022-11-15T10:29:50.139Z,99484.91
2022-11-15T10:32:19.773Z,99480.75
2022-11-15T10:34:48.150Z,99485.25
2022-11-15T10:37:30.225Z,99483.72
2022-11-15T10:40:16.367Z,99479.59
2022-11-15T10:42:44.128Z,99483.22
2022-11-15T10:45:28.300Z,99483.72
2022-11-15T10:48:15.959Z,99470.47
2022-11-15T10:50:45.731Z,99466.81
2022-11-15T10:53:23.141Z,99471.41
2022-11-15T10:55:53.456Z,99460.72
2022-11-15T10:58:30.108Z,99469.78
2022-11-15T11:01:10.503Z,99468.63
2022-11-15T11:03:40.057Z,99457.69
2022-11-15T11:06:11.860Z,99453.16
2022-11-15T11:08:41.083Z,99433.19
2022-11-15T11:11:09.735Z,99437.31
2022-11-15T11:13:39.170Z,99433.44
2022-11-15T11:16:37.901Z,99420.31
2022-11-15T11:19:32.561Z,99420.19
2022-11-15T11:22:07.966Z,99423.38
2022-11-15T11:24:45.115Z,99414.41
2022-11-15T11:27:28.547Z,99416.41
2022-11-15T11:30:09.169Z,99408.69
2022-11-15T11:32:55.232Z,99412.75
2022-11-15T11:35:29.933Z,99406.81
2022-11-15T11:38:08.667Z,99405.50
2022-11-15T11:40:45.339Z,99395.66
2022-11-15T11:43:23.281Z,99394.41
2022-11-15T11:46:08.080Z,99380.13
2022-11-15T11:48:43.749Z,99387.22
2022-11-15T11:51:18.422Z,99385.53
2022-11-15T11:53:52.998Z,99383.44
2022-11-15T11:56:27.065Z,99377.16
2022-11-15T11:58:57.887Z,99383.22
2022-11-15T12:01:28.801Z,99377.84
2022-11-15T12:04:01.713Z,99374.31
2022-11-15T12:06:35.514Z,99367.28
2022-11-15T12:09:10.134Z,99366.19
2022-11-15T12:11:52.580Z,99362.25
2022-11-15T12:14:29.528Z,99358.03
2022-11-15T12:16:57.373Z,99358.44
2022-11-15T12:19:25.126Z,99347.56
2022-11-15T12:21:58.586Z,99352.53
2022-11-15T12:24:30.427Z,99342.44
2022-11-15T12:27:04.089Z,99334.97
2022-11-15T12:29:38.730Z,99334.78
2022-11-15T12:32:12.820Z,99334.41
2022-11-15T12:34:46.940Z,99326.97
2022-11-15T12:37:57.647Z,99310.59
2022-11-15T12:40:37.300Z,99313.19
2022-11-15T12:43:40.752Z,99312.66
2022-11-15T12:46:16.597Z,99323.59
2022-11-15T12:48:56.731Z,99327.69
2022-11-15T12:52:11.926Z,99314.09
2022-11-15T12:54:58.650Z,99314.84
2022-11-15T12:57:45.367Z,99322.09
2022-11-15T13:00:47.909Z,99306.78
2022-11-15T13:03:27.179Z,99307.94
2022-11-15T13:06:05.875Z,99304.75
2022-11-15T13:08:51.766Z,99300.13
2022-11-15T13:11:46.591Z,99297.94
2022-11-15T13:15:00.108Z,99289.84
2022-11-15T13:17:36.191Z,99292.13
2022-11-15T13:20:28.223Z,99284.09
2022-11-15T13:23:11.980Z,99294.78
2022-11-15T13:26:05.885Z,99288.34
2022-11-15T13:28:37.707Z,99288.72
2022-11-15T13:31:36.700Z,99290.59
2022-11-15T13:34:49.436Z,99276.88
2022-11-15T13:37:14.817Z,99267.94
2022-11-15T13:39:42.656Z,99265.25
2022-11-15T13:42:17.101Z,99259.88
2022-11-15T13:44:57.595Z,99253.03
2022-11-15T13:47:29.063Z,99252.09
2022-11-15T13:50:00.356Z,99247.91
2022-11-15T13:52:32.847Z,99242.34
2022-11-15T13:55:07.025Z,99242.34
2022-11-15T13:57:42.205Z,99237.31
2022-11-15T14:00:29.660Z,99233.81
2022-11-15T14:02:58.721Z,99241.88
2022-11-15T14:05:27.654Z,99230.63
2022-11-15T14:07:56.909Z,99228.50
2022-11-15T14:10:30.823Z,99220.06
2022-11-15T14:12:58.782Z,99224.91
2022-11-15T14:15:31.352Z,99217.03
2022-11-15T14:17:59.162Z,99215.88
2022-11-15T14:20:33.982Z,99212.69
2022-11-15T14:23:03.963Z,99211.63
2022-11-15T14:25:35.829Z,99209.19
2022-11-15T14:28:16.239Z,99206.03
2022-11-15T14:30:47.196Z,99205.16
2022-11-15T14:33:27.118Z,99197.56
2022-11-15T14:35:58.159Z,99201.66
2022-11-15T14:38:25.779Z,99191.84
2022-11-15T14:40:54.942Z,99191.53
2022-11-15T14:43:22.718Z,99187.41
2022-11-15T14:45:50.329Z,99181.19
2022-11-15T14:48:18.090Z,99175.72
2022-11-15T14:50:46.199Z,99174.22
2022-11-15T14:53:16.804Z,99174.81
2022-11-15T14:55:44.813Z,99168.94
2022-11-15T14:58:12.601Z,99160.41
2022-11-15T15:00:42.338Z,99167.91
2022-11-15T15:03:10.972Z,99159.09
2022-11-15T15:05:40.378Z,99159.81
2022-11-15T15:08:09.070Z,99158.16
2022-11-15T15:10:41.708Z,99144.13
2022-11-15T15:13:17.625Z,99142.03
2022-11-15T15:15:45.851Z,99134.31
2022-11-15T15:18:13.907Z,99125.44
2022-11-15T15:20:43.397Z,99122.75
2022-11-15T15:23:17.317Z,99111.22
2022-11-15T15:25:47.378Z,99109.31
2022-11-15T15:28:15.459Z,99103.69
2022-11-15T15:30:43.565Z,99111.31
2022-11-15T15:33:11.148Z,99106.53
2022-11-15T15:35:38.769Z,99102.19
2022-11-15T15:38:06.609Z,99100.09
2022-11-15T15:40:35.542Z,99096.59
2022-11-15T15:43:04.507Z,99096.09
2022-11-15T15:45:40.191Z,99097.03
2022-11-15T15:48:14.376Z,99097.75
2022-11-15T15:50:43.793Z,99094.81
2022-11-15T15:53:13.119Z,99099.03
2022-11-15T15:55:41.043Z,99083.56
2022-11-15T15:58:10.477Z,99081.94
2022-11-15T16:00:38.717Z,99076.94
2022-11-15T16:03:06.504Z,99076.00
2022-11-15T16:05:34.224Z,99072.56
2022-11-15T16:08:01.856Z,99072.38
2022-11-15T16:10:33.015Z,99070.13
2022-11-15T16:13:00.713Z,99068.00
2022-11-15T16:15:32.649Z,99067.19
2022-11-15T16:18:01.936Z,99069.69
2022-11-15T16:20:36.765Z,99062.19
2022-11-15T16:23:09.170Z,99058.44
2022-11-15T16:25:41.810Z,99065.09
2022-11-15T16:28:18.544Z,99059.25
2022-11-15T16:30:56.438Z,99059.13
2022-11-15T16:33:26.150Z,99056.09
2022-11-15T16:35:54.369Z,99047.69
2022-11-15T16:38:22.020Z,99052.81
2022-11-15T16:40:49.648Z,99056.81
2022-11-15T16:43:17.344Z,99057.06
2022-11-15T16:45:45.157Z,99050.63
2022-11-15T16:48:23.618Z,99044.28
2022-11-15T16:50:51.371Z,99042.75
2022-11-15T16:53:18.962Z,99050.25
2022-11-15T16:55:46.635Z,99043.72
2022-11-15T16:58:14.168Z,99051.78
2022-11-15T17:00:42.155Z,99045.34
2022-11-15T17:03:09.874Z,99036.91
2022-11-15T17:05:38.803Z,99038.44
2022-11-15T17:08:06.456Z,99039.97
2022-11-15T17:10:35.120Z,99034.59
2022-11-15T17:13:02.701Z,99033.78
2022-11-15T17:15:30.311Z,99027.69
2022-11-15T17:17:57.939Z,99028.25
2022-11-15T17:20:26.675Z,99017.63
2022-11-15T17:22:56.872Z,99018.22
2022-11-15T17:25:24.568Z,99018.69
2022-11-15T17:27:52.205Z,99021.81
2022-11-15T17:30:20.295Z,99013.75
2022-11-15T17:32:48.085Z,99009.56
2022-11-15T17:35:16.182Z,99008.84
2022-11-15T17:37:44.604Z,99007.56
2022-11-15T17:40:13.824Z,99001.75
2022-11-15T17:42:50.206Z,98994.84
2022-11-15T17:45:17.928Z,98997.75
2022-11-15T17:47:45.517Z,98994.25
2022-11-15T17:50:13.157Z,98985.94
2022-11-15T17:52:40.928Z,98977.63
2022-11-15T17:55:09.216Z,98989.94
2022-11-15T17:57:38.401Z,98977.53
2022-11-15T18:00:07.024Z,98978.59
2022-11-15T18:02:34.904Z,98976.00
2022-11-15T18:05:03.233Z,98974.59
2022-11-15T18:07:31.119Z,98971.22
2022-11-15T18:09:58.814Z,98972.16
2022-11-15T18:12:26.455Z,98970.28
2022-11-15T18:14:55.483Z,98963.94
2022-11-15T18:17:23.806Z,98957.50
2022-11-15T18:19:51.418Z,98956.81
2022-11-15T18:22:20.450Z,98957.41
2022-11-15T18:24:48.812Z,98952.72
2022-11-15T18:27:16.483Z,98944.44
2022-11-15T18:29:45.652Z,98950.63
2022-11-15T18:32:17.587Z,98940.19
2022-11-15T18:34:45.401Z,98940.09
2022-11-15T18:37:14.186Z,98944.28
2022-11-15T18:39:42.332Z,98939.69
2022-11-15T18:42:09.909Z,98940.88
2022-11-15T18:44:39.009Z,98940.66
2022-11-15T18:47:06.762Z,98946.84
2022-11-15T18:49:35.922Z,98945.75
2022-11-15T18:52:03.700Z,98941.00
2022-11-15T18:54:31.937Z,98941.00
2022-11-15T18:57:02.446Z,98945.53
2022-11-15T18:59:32.494Z,98935.44
2022-11-15T19:02:00.265Z,98939.69
2022-11-15T19:04:27.917Z,98927.91
2022-11-15T19:06:56.884Z,98925.44
2022-11-15T19:09:27.227Z,98923.56
2022-11-15T19:11:55.979Z,98916.81
2022-11-15T19:14:26.123Z,98915.66
2022-11-15T19:16:54.884Z,98913.09
2022-11-15T19:19:28.695Z,98914.16
2022-11-15T19:21:58.276Z,98916.47
2022-11-15T19:24:27.047Z,98907.91
2022-11-15T19:26:54.811Z,98902.22
2022-11-15T19:29:22.434Z,98916.94
2022-11-15T19:31:50.228Z,98911.97
2022-11-15T19:34:20.439Z,98911.84
2022-11-15T19:36:48.103Z,98906.44
2022-11-15T19:39:18.568Z,98906.19
2022-11-15T19:41:47.589Z,98904.91
2022-11-15T19:44:18.783Z,98904.69
2022-11-15T19:46:48.256Z,98900.00
2022-11-15T19:49:16.464Z,98894.50
2022-11-15T19:51:45.191Z,98907.25
2022-11-15T19:54:13.578Z,98896.84
2022-11-15T19:56:42.654Z,98891.94
2022-11-15T19:59:11.794Z,98893.34
2022-11-15T20:01:39.900Z,98891.69
2022-11-15T20:04:09.823Z,98888.09
2022-11-15T20:06:40.263Z,98877.91
2022-11-15T20:09:08.376Z,98887.50
2022-11-15T20:11:37.981Z,98881.19
2022-11-15T20:14:09.443Z,98886.22
2022-11-15T20:16:37.402Z,98881.56
2022-11-15T20:19:05.225Z,98877.69
2022-11-15T20:21:33.032Z,98875.00
2022-11-15T20:24:01.198Z,98870.13
2022-11-15T20:26:30.177Z,98866.81
2022-11-15T20:29:01.234Z,98862.97
2022-11-15T20:31:31.910Z,98871.72
2022-11-15T20:33:59.740Z,98869.50
2022-11-15T20:36:27.501Z,98867.97
2022-11-15T20:38:59.908Z,98865.31
2022-11-15T20:41:28.525Z,98860.41
2022-11-15T20:43:56.573Z,98869.31
2022-11-15T20:46:24.301Z,98864.03
2022-11-15T20:48:53.567Z,98861.00
2022-11-15T20:51:21.860Z,98851.66
2022-11-15T20:53:49.893Z,98853.19
2022-11-15T20:56:20.257Z,98841.38
2022-11-15T20:58:50.117Z,98853.97
2022-11-15T21:01:23.012Z,98845.69
2022-11-15T21:03:51.206Z,98848.16
2022-11-15T21:06:24.343Z,98843.00
2022-11-15T21:09:10.292Z,98838.09
2022-11-15T21:11:52.763Z,98831.31
2022-11-15T21:14:20.496Z,98830.16
2022-11-15T21:16:48.205Z,98834.00
2022-11-15T21:19:15.949Z,98837.97
2022-11-15T21:21:45.267Z,98829.47
2022-11-15T21:24:12.960Z,98821.25
2022-11-15T21:26:40.648Z,98824.16
2022-11-15T21:29:09.486Z,98820.22
2022-11-15T21:31:38.454Z,98816.38
2022-11-15T21:34:07.360Z,98809.00
2022-11-15T21:36:34.971Z,98805.41
2022-11-15T21:39:04.413Z,98807.97
2022-11-15T21:41:32.095Z,98802.25
2022-11-15T21:44:00.430Z,98806.13
2022-11-15T21:46:29.166Z,98801.72
2022-11-15T21:48:57.322Z,98794.44
2022-11-15T21:51:25.605Z,98792.91
2022-11-15T21:53:55.660Z,98791.41
2022-11-15T21:56:25.592Z,98792.34
2022-11-15T21:58:53.611Z,98795.63
2022-11-15T22:01:39.273Z,98791.06
2022-11-15T22:04:07.254Z,98792.25
2022-11-15T22:06:35.127Z,98788.75
2022-11-15T22:09:03.386Z,98777.38
2022-11-15T22:11:32.478Z,98782.19
2022-11-15T22:14:00.576Z,98777.28
2022-11-15T22:16:28.524Z,98774.34
2022-11-15T22:18:56.787Z,98774.13
2022-11-15T22:21:24.509Z,98780.31
2022-11-15T22:23:52.168Z,98774.38
2022-11-15T22:26:23.719Z,98769.22
2022-11-15T22:28:53.385Z,98764.09
2022-11-15T22:31:21.353Z,98761.97
2022-11-15T22:33:49.175Z,98762.06
2022-11-15T22:36:16.981Z,98754.75
2022-11-15T22:38:44.970Z,98754.63
2022-11-15T22:41:12.676Z,98754.97
2022-11-15T22:43:40.379Z,98747.84
2022-11-15T22:46:13.742Z,98749.16
2022-11-15T22:48:42.142Z,98752.91
2022-11-15T22:51:11.415Z,98756.16
2022-11-15T22:53:39.121Z,98753.38
2022-11-15T22:56:07.649Z,98752.16
2022-11-15T22:58:36.092Z,98756.25
2022-11-15T23:01:05.930Z,98748.56
2022-11-15T23:03:35.623Z,98744.34
2022-11-15T23:06:05.495Z,98743.88
2022-11-15T23:08:33.723Z,98751.03
2022-11-15T23:11:19.609Z,98744.59
2022-11-15T23:13:48.676Z,98751.50
2022-11-15T23:16:34.619Z,98744.91
2022-11-15T23:19:05.964Z,98746.22
2022-11-15T23:21:53.593Z,98739.13
2022-11-15T23:24:22.096Z,98736.84
2022-11-15T23:26:51.645Z,98742.72
2022-11-15T23:29:22.920Z,98740.50
2022-11-15T23:32:08.341Z,98735.81
2022-11-15T23:34:39.536Z,98733.53
2022-11-15T23:37:08.328Z,98734.22
2022-11-15T23:39:36.142Z,98726.63
2022-11-15T23:42:09.095Z,98732.47
2022-11-15T23:44:37.427Z,98728.13
2022-11-15T23:47:05.261Z,98731.19
2022-11-15T23:49:32.923Z,98730.81
2022-11-15T23:52:02.162Z,98719.41
2022-11-15T23:54:30.645Z,98721.47
2022-11-15T23:56:58.367Z,98727.91
2022-11-15T23:59:26.039Z,98725.81
